createdAt,value
2023-03-14T00:00:30.381Z,3.04
2023-03-14T00:02:58.157Z,3.04
2023-03-14T00:05:26.563Z,3.03
2023-03-14T00:07:54.134Z,3.03
2023-03-14T00:10:21.822Z,3.03
2023-03-14T00:12:51.160Z,3.03
2023-03-14T00:15:18.740Z,3.02
2023-03-14T00:17:48.785Z,3.00
2023-03-14T00:20:17.081Z,2.97
2023-03-14T00:22:44.732Z,2.95
2023-03-14T00:25:13.328Z,2.93
2023-03-14T00:27:40.936Z,2.92
2023-03-14T00:30:09.519Z,2.91
2023-03-14T00:32:37.848Z,2.90
2023-03-14T00:35:09.977Z,2.89
2023-03-14T00:37:38.346Z,2.87
2023-03-14T00:40:08.713Z,2.86
2023-03-14T00:42:38.336Z,2.85
2023-03-14T00:45:08.439Z,2.83
2023-03-14T00:47:39.522Z,2.83
2023-03-14T00:50:07.682Z,2.83
2023-03-14T00:52:35.377Z,2.82
2023-03-14T00:55:03.200Z,2.82
2023-03-14T00:57:31.244Z,2.81
2023-03-14T00:59:58.761Z,2.80
2023-03-14T01:02:26.513Z,2.79
2023-03-14T01:04:58.297Z,2.80
2023-03-14T01:07:25.812Z,2.80
2023-03-14T01:09:53.766Z,2.79
2023-03-14T01:12:22.424Z,2.79
2023-03-14T01:14:51.748Z,2.78
2023-03-14T01:17:19.573Z,2.77
2023-03-14T01:19:48.404Z,2.76
2023-03-14T01:22:16.514Z,2.74
2023-03-14T01:24:44.126Z,2.73
2023-03-14T01:27:12.501Z,2.72
2023-03-14T01:29:40.259Z,2.72
2023-03-14T01:32:14.430Z,2.72
2023-03-14T01:34:44.747Z,2.70
2023-03-14T01:37:12.784Z,2.70
2023-03-14T01:39:42.793Z,2.68
2023-03-14T01:42:11.241Z,2.67
2023-03-14T01:44:49.010Z,2.65
2023-03-14T01:47:16.653Z,2.64
2023-03-14T01:49:44.364Z,2.63
2023-03-14T01:52:14.215Z,2.63
2023-03-14T01:54:48.969Z,2.62
2023-03-14T01:57:18.695Z,2.62
2023-03-14T01:59:53.962Z,2.61
2023-03-14T02:02:25.629Z,2.60
2023-03-14T02:04:54.423Z,2.59
2023-03-14T02:07:43.843Z,2.59
2023-03-14T02:10:21.922Z,2.58
2023-03-14T02:12:51.875Z,2.57
2023-03-14T02:15:30.287Z,2.55
2023-03-14T02:18:07.081Z,2.53
2023-03-14T02:21:06.460Z,2.51
2023-03-14T02:23:33.959Z,2.48
2023-03-14T02:26:02.735Z,2.45
2023-03-14T02:28:32.716Z,2.43
2023-03-14T02:31:02.367Z,2.42
2023-03-14T02:33:33.643Z,2.41
2023-03-14T02:36:02.141Z,2.40
2023-03-14T02:38:39.277Z,2.39
2023-03-14T02:41:07.358Z,2.38
2023-03-14T02:43:38.024Z,2.38
2023-03-14T02:46:11.518Z,2.38
2023-03-14T02:48:39.943Z,2.39
2023-03-14T02:51:08.779Z,2.40
2023-03-14T02:53:37.546Z,2.42
2023-03-14T02:56:08.896Z,2.42
2023-03-14T02:58:37.013Z,2.43
2023-03-14T03:01:27.536Z,2.42
2023-03-14T03:03:55.352Z,2.41
2023-03-14T03:06:23.653Z,2.39
2023-03-14T03:08:51.127Z,2.39
2023-03-14T03:11:18.780Z,2.38
2023-03-14T03:13:46.722Z,2.37
2023-03-14T03:16:16.041Z,2.36
2023-03-14T03:18:44.728Z,2.34
2023-03-14T03:21:12.301Z,2.32
2023-03-14T03:23:47.353Z,2.30
2023-03-14T03:26:15.011Z,2.29
2023-03-14T03:28:42.968Z,2.28
2023-03-14T03:31:11.843Z,2.26
2023-03-14T03:33:39.528Z,2.24
2023-03-14T03:36:07.595Z,2.21
2023-03-14T03:38:37.419Z,2.17
2023-03-14T03:41:08.338Z,2.13
2023-03-14T03:43:36.141Z,2.09
2023-03-14T03:46:05.987Z,2.06
2023-03-14T03:48:35.900Z,2.03
2023-03-14T03:51:05.396Z,1.99
2023-03-14T03:53:34.190Z,1.95
2023-03-14T03:56:09.572Z,1.92
2023-03-14T03:58:39.859Z,1.88
2023-03-14T04:01:08.828Z,1.85
2023-03-14T04:03:39.614Z,1.83
2023-03-14T04:06:11.978Z,1.80
2023-03-14T04:08:42.052Z,1.76
2023-03-14T04:11:17.161Z,1.72
2023-03-14T04:14:12.280Z,1.67
2023-03-14T04:16:39.887Z,1.63
2023-03-14T04:19:13.767Z,1.59
2023-03-14T04:21:45.767Z,1.53
2023-03-14T04:24:13.826Z,1.49
2023-03-14T04:26:44.594Z,1.45
2023-03-14T04:29:13.659Z,1.42
2023-03-14T04:31:43.942Z,1.41
2023-03-14T04:34:11.876Z,1.39
2023-03-14T04:36:49.008Z,1.37
2023-03-14T04:39:22.208Z,1.35
2023-03-14T04:41:56.334Z,1.34
2023-03-14T04:44:24.826Z,1.33
2023-03-14T04:46:53.891Z,1.33
2023-03-14T04:49:22.293Z,1.33
2023-03-14T04:51:54.110Z,1.34
2023-03-14T04:54:23.770Z,1.35
2023-03-14T04:56:54.714Z,1.37
2023-03-14T04:59:22.924Z,1.42
2023-03-14T05:01:52.613Z,1.50
2023-03-14T05:04:43.463Z,1.60
2023-03-14T05:07:37.027Z,1.69
2023-03-14T05:10:14.288Z,1.77
2023-03-14T05:12:55.291Z,1.85
2023-03-14T05:15:51.991Z,1.95
2023-03-14T05:18:51.655Z,2.05
2023-03-14T05:21:57.555Z,2.14
2023-03-14T05:24:41.916Z,2.23
2023-03-14T05:27:22.012Z,2.33
2023-03-14T05:30:03.334Z,2.42
2023-03-14T05:32:51.618Z,2.51
2023-03-14T05:35:37.652Z,2.62
2023-03-14T05:38:07.209Z,2.71
2023-03-14T05:41:03.835Z,2.79
2023-03-14T05:43:54.238Z,2.87
2023-03-14T05:46:52.320Z,2.93
2023-03-14T05:49:36.685Z,3.02
2023-03-14T05:52:20.134Z,3.06
2023-03-14T05:54:50.617Z,3.08
2023-03-14T05:57:23.593Z,3.09
2023-03-14T06:00:12.078Z,3.11
2023-03-14T06:02:50.763Z,3.14
2023-03-14T06:05:24.004Z,3.17
2023-03-14T06:07:56.361Z,3.21
2023-03-14T06:10:24.431Z,3.27
2023-03-14T06:12:52.797Z,3.32
2023-03-14T06:15:21.405Z,3.36
2023-03-14T06:17:55.555Z,3.40
2023-03-14T06:20:23.660Z,3.44
2023-03-14T06:22:51.917Z,3.48
2023-03-14T06:25:19.975Z,3.53
2023-03-14T06:27:56.505Z,3.59
2023-03-14T06:30:24.340Z,3.67
2023-03-14T06:32:54.575Z,3.77
2023-03-14T06:35:24.754Z,3.92
2023-03-14T06:37:53.090Z,4.13
2023-03-14T06:40:21.172Z,4.41
2023-03-14T06:42:59.218Z,4.71
2023-03-14T06:45:27.828Z,5.01
2023-03-14T06:47:59.728Z,5.31
2023-03-14T06:50:38.902Z,5.61
2023-03-14T06:53:06.613Z,5.84
2023-03-14T06:55:35.473Z,6.00
2023-03-14T06:58:03.642Z,6.14
2023-03-14T07:00:32.337Z,6.18
2023-03-14T07:02:59.934Z,6.21
2023-03-14T07:05:31.304Z,6.24
2023-03-14T07:07:59.344Z,6.32
2023-03-14T07:10:26.970Z,6.46
2023-03-14T07:12:58.058Z,6.66
2023-03-14T07:15:27.645Z,6.84
2023-03-14T07:17:58.307Z,6.90
2023-03-14T07:20:27.598Z,6.90
2023-03-14T07:22:55.569Z,6.87
2023-03-14T07:25:33.280Z,6.85
2023-03-14T07:28:02.793Z,6.79
2023-03-14T07:30:30.677Z,6.72
2023-03-14T07:32:59.918Z,6.66
2023-03-14T07:35:28.189Z,6.59
2023-03-14T07:37:55.800Z,6.52
2023-03-14T07:40:29.093Z,6.48
2023-03-14T07:42:56.914Z,6.51
2023-03-14T07:45:39.609Z,6.64
2023-03-14T07:48:10.628Z,6.80
2023-03-14T07:50:38.107Z,6.93
2023-03-14T07:53:05.977Z,7.06
2023-03-14T07:55:33.480Z,7.22
2023-03-14T07:58:02.775Z,7.38
2023-03-14T08:00:30.361Z,7.53
2023-03-14T08:02:57.948Z,7.71
2023-03-14T08:05:25.603Z,7.89
2023-03-14T08:07:53.121Z,8.01
2023-03-14T08:10:24.323Z,8.13
2023-03-14T08:12:54.809Z,8.24
2023-03-14T08:15:22.892Z,8.36
2023-03-14T08:17:52.062Z,8.46
2023-03-14T08:20:24.030Z,8.58
2023-03-14T08:22:51.519Z,8.72
2023-03-14T08:25:19.301Z,8.85
2023-03-14T08:27:47.886Z,8.92
2023-03-14T08:30:18.565Z,8.99
2023-03-14T08:32:46.111Z,9.04
2023-03-14T08:35:13.710Z,9.11
2023-03-14T08:37:42.718Z,9.21
2023-03-14T08:40:11.091Z,9.28
2023-03-14T08:42:40.480Z,9.37
2023-03-14T08:45:08.251Z,9.48
2023-03-14T08:47:35.485Z,9.58
2023-03-14T08:50:04.991Z,9.64
2023-03-14T08:52:32.628Z,9.67
2023-03-14T08:55:05.393Z,9.71
2023-03-14T08:57:32.732Z,9.75
2023-03-14T09:00:00.454Z,9.82
2023-03-14T09:02:28.009Z,9.90
2023-03-14T09:04:55.390Z,9.89
2023-03-14T09:07:26.349Z,9.85
2023-03-14T09:09:53.880Z,9.81
2023-03-14T09:12:21.361Z,9.84
2023-03-14T09:14:50.813Z,9.87
2023-03-14T09:17:18.403Z,9.91
2023-03-14T09:19:45.827Z,9.94
2023-03-14T09:22:13.406Z,9.96
2023-03-14T09:24:42.164Z,9.93
2023-03-14T09:27:09.667Z,9.90
2023-03-14T09:29:38.377Z,9.89
2023-03-14T09:32:06.114Z,9.92
2023-03-14T09:34:37.861Z,9.98
2023-03-14T09:37:05.638Z,10.03
2023-03-14T09:39:33.028Z,10.06
2023-03-14T09:42:02.200Z,10.11
2023-03-14T09:44:30.405Z,10.14
2023-03-14T09:47:08.197Z,10.21
2023-03-14T09:49:38.168Z,10.24
2023-03-14T09:52:15.826Z,10.24
2023-03-14T09:54:53.086Z,10.23
2023-03-14T09:57:21.660Z,10.25
2023-03-14T09:59:50.551Z,10.21
2023-03-14T10:02:19.568Z,10.19
2023-03-14T10:04:48.479Z,10.18
2023-03-14T10:07:20.046Z,10.16
2023-03-14T10:09:48.471Z,10.14
2023-03-14T10:12:21.198Z,10.13
2023-03-14T10:14:52.214Z,10.11
2023-03-14T10:17:20.473Z,10.10
2023-03-14T10:19:58.207Z,10.13
2023-03-14T10:22:32.533Z,10.16
2023-03-14T10:25:06.449Z,10.21
2023-03-14T10:27:34.546Z,10.25
2023-03-14T10:30:03.351Z,10.26
2023-03-14T10:32:36.003Z,10.24
2023-03-14T10:35:25.334Z,10.21
2023-03-14T10:38:02.341Z,10.19
2023-03-14T10:40:33.732Z,10.20
2023-03-14T10:43:01.390Z,10.21
2023-03-14T10:45:33.127Z,10.21
2023-03-14T10:48:17.629Z,10.20
2023-03-14T10:50:49.236Z,10.21
2023-03-14T10:53:17.712Z,10.21
2023-03-14T10:55:47.588Z,10.19
2023-03-14T10:58:22.212Z,10.19
2023-03-14T11:01:10.768Z,10.19
2023-03-14T11:03:39.663Z,10.21
2023-03-14T11:06:10.041Z,10.24
2023-03-14T11:08:58.075Z,10.22
2023-03-14T11:11:26.179Z,10.17
2023-03-14T11:13:57.991Z,10.14
2023-03-14T11:16:32.114Z,10.13
2023-03-14T11:19:01.412Z,10.14
2023-03-14T11:21:43.038Z,10.17
2023-03-14T11:24:10.896Z,10.24
2023-03-14T11:26:59.025Z,10.31
2023-03-14T11:29:34.116Z,10.33
2023-03-14T11:32:02.871Z,10.35
2023-03-14T11:34:38.851Z,10.38
2023-03-14T11:37:18.052Z,10.36
2023-03-14T11:39:47.061Z,10.33
2023-03-14T11:42:17.260Z,10.29
2023-03-14T11:44:46.285Z,10.27
2023-03-14T11:47:21.500Z,10.29
2023-03-14T11:49:50.655Z,10.33
2023-03-14T11:52:18.735Z,10.37
2023-03-14T11:55:07.167Z,10.37
2023-03-14T11:57:36.640Z,10.36
2023-03-14T12:00:17.277Z,10.36
2023-03-14T12:03:05.926Z,10.40
2023-03-14T12:05:33.422Z,10.44
2023-03-14T12:08:00.664Z,10.46
2023-03-14T12:10:28.132Z,10.47
2023-03-14T12:12:56.164Z,10.47
2023-03-14T12:15:23.818Z,10.46
2023-03-14T12:17:54.779Z,10.45
2023-03-14T12:20:22.740Z,10.45
2023-03-14T12:22:57.593Z,10.43
2023-03-14T12:25:25.539Z,10.41
2023-03-14T12:27:56.171Z,10.39
2023-03-14T12:30:33.940Z,10.39
2023-03-14T12:33:10.713Z,10.37
2023-03-14T12:35:42.108Z,10.33
2023-03-14T12:38:28.175Z,10.32
2023-03-14T12:41:14.449Z,10.29
2023-03-14T12:43:41.788Z,10.31
2023-03-14T12:46:18.660Z,10.37
2023-03-14T12:48:55.834Z,10.41
2023-03-14T12:51:36.857Z,10.46
2023-03-14T12:54:23.088Z,10.52
2023-03-14T12:56:50.545Z,10.56
2023-03-14T12:59:17.783Z,10.57
2023-03-14T13:01:48.327Z,10.58
2023-03-14T13:04:18.029Z,10.59
2023-03-14T13:06:47.445Z,10.59
2023-03-14T13:09:30.324Z,10.59
2023-03-14T13:12:12.494Z,10.58
2023-03-14T13:14:48.428Z,10.56
2023-03-14T13:17:34.071Z,10.54
2023-03-14T13:20:16.155Z,10.51
2023-03-14T13:22:46.619Z,10.51
2023-03-14T13:25:13.950Z,10.52
2023-03-14T13:27:41.799Z,10.53
2023-03-14T13:30:17.080Z,10.57
2023-03-14T13:32:48.172Z,10.61
2023-03-14T13:35:25.861Z,10.66
2023-03-14T13:38:10.226Z,10.70
2023-03-14T13:40:38.752Z,10.72
2023-03-14T13:43:13.037Z,10.73
2023-03-14T13:45:47.170Z,10.76
2023-03-14T13:48:15.768Z,10.79
2023-03-14T13:51:06.423Z,10.79
2023-03-14T13:53:35.957Z,10.76
2023-03-14T13:56:03.809Z,10.73
2023-03-14T13:58:31.722Z,10.71
2023-03-14T14:01:01.749Z,10.69
2023-03-14T14:03:30.847Z,10.68
2023-03-14T14:05:59.241Z,10.68
2023-03-14T14:08:26.756Z,10.66
2023-03-14T14:10:55.524Z,10.61
2023-03-14T14:13:24.622Z,10.57
2023-03-14T14:15:52.897Z,10.51
2023-03-14T14:18:21.947Z,10.45
2023-03-14T14:20:54.103Z,10.38
2023-03-14T14:23:25.957Z,10.30
2023-03-14T14:25:53.940Z,10.24
2023-03-14T14:28:24.074Z,10.17
2023-03-14T14:31:00.618Z,10.11
2023-03-14T14:33:27.912Z,10.05
2023-03-14T14:35:56.756Z,10.02
2023-03-14T14:38:24.012Z,9.96
2023-03-14T14:40:53.540Z,9.92
2023-03-14T14:43:23.467Z,9.87
2023-03-14T14:45:53.604Z,9.82
2023-03-14T14:48:24.260Z,9.78
2023-03-14T14:50:51.605Z,9.75
2023-03-14T14:53:24.650Z,9.74
2023-03-14T14:55:52.701Z,9.72
2023-03-14T14:58:27.699Z,9.70
2023-03-14T15:00:55.147Z,9.67
2023-03-14T15:03:22.502Z,9.65
2023-03-14T15:05:50.125Z,9.61
2023-03-14T15:08:18.608Z,9.58
2023-03-14T15:10:45.883Z,9.56
2023-03-14T15:13:14.627Z,9.55
2023-03-14T15:15:42.307Z,9.52
2023-03-14T15:18:18.806Z,9.47
2023-03-14T15:20:46.548Z,9.43
2023-03-14T15:23:14.778Z,9.40
2023-03-14T15:25:54.987Z,9.39
2023-03-14T15:28:24.857Z,9.37
2023-03-14T15:30:53.184Z,9.35
2023-03-14T15:33:23.460Z,9.30
2023-03-14T15:35:51.885Z,9.25
2023-03-14T15:38:26.144Z,9.21
2023-03-14T15:40:55.384Z,9.17
2023-03-14T15:43:22.843Z,9.12
2023-03-14T15:47:28.941Z,9.07
2023-03-14T15:49:57.936Z,8.97
2023-03-14T15:52:26.752Z,8.90
2023-03-14T15:54:55.908Z,8.83
2023-03-14T15:57:27.381Z,8.76
2023-03-14T15:59:56.315Z,8.70
2023-03-14T16:02:25.265Z,8.64
2023-03-14T16:04:54.789Z,8.56
2023-03-14T16:07:23.750Z,8.49
2023-03-14T16:09:52.521Z,8.44
2023-03-14T16:12:22.528Z,8.39
2023-03-14T16:14:51.467Z,8.35
2023-03-14T16:17:23.560Z,8.30
2023-03-14T16:19:52.957Z,8.21
2023-03-14T16:22:22.085Z,8.13
2023-03-14T16:24:51.713Z,8.06
2023-03-14T16:27:20.996Z,7.97
2023-03-14T16:29:49.692Z,7.90
2023-03-14T16:32:19.841Z,7.84
2023-03-14T16:34:49.167Z,7.80
2023-03-14T16:37:18.579Z,7.77
2023-03-14T16:45:33.730Z,7.68
2023-03-14T16:48:02.561Z,7.65
2023-03-14T16:50:31.715Z,7.62
2023-03-14T16:53:02.716Z,7.58
2023-03-14T16:55:34.280Z,7.54
2023-03-14T16:58:03.387Z,7.52
2023-03-14T17:00:37.133Z,7.50
2023-03-14T17:03:06.336Z,7.45
2023-03-14T17:05:35.339Z,7.39
2023-03-14T17:08:05.910Z,7.33
2023-03-14T17:10:37.502Z,7.27
2023-03-14T17:13:07.975Z,7.23
2023-03-14T17:15:38.298Z,7.20
2023-03-14T17:18:07.661Z,7.19
2023-03-14T17:20:39.336Z,7.17
2023-03-14T17:23:08.559Z,7.12
2023-03-14T17:25:38.267Z,7.08
2023-03-14T17:28:08.573Z,7.06
2023-03-14T17:30:37.780Z,7.04
2023-03-14T17:33:07.049Z,7.02
2023-03-14T17:35:37.385Z,6.98
2023-03-14T17:38:06.693Z,6.95
2023-03-14T17:40:41.809Z,6.93
2023-03-14T17:43:10.712Z,6.89
2023-03-14T17:45:46.182Z,6.86
2023-03-14T17:48:16.631Z,6.83
2023-03-14T17:50:45.462Z,6.81
2023-03-14T17:53:14.309Z,6.78
2023-03-14T17:55:43.270Z,6.75
2023-03-14T17:58:13.281Z,6.70
2023-03-14T18:00:43.093Z,6.66
2023-03-14T18:03:12.316Z,6.62
2023-03-14T18:05:41.860Z,6.59
2023-03-14T18:08:13.631Z,6.58
2023-03-14T18:10:44.645Z,6.56
2023-03-14T18:13:14.960Z,6.54
2023-03-14T18:15:43.850Z,6.54
2023-03-14T18:18:16.164Z,6.51
2023-03-14T18:20:54.487Z,6.48
2023-03-14T18:23:23.712Z,6.43
2023-03-14T18:25:52.641Z,6.39
2023-03-14T18:28:22.497Z,6.36
2023-03-14T18:30:53.075Z,6.34
2023-03-14T18:33:22.870Z,6.34
2023-03-14T18:35:52.669Z,6.35
2023-03-14T18:38:22.476Z,6.37
2023-03-14T18:40:51.275Z,6.38
2023-03-14T18:43:20.025Z,6.38
2023-03-14T18:45:49.241Z,6.39
2023-03-14T18:48:25.542Z,6.39
2023-03-14T18:50:54.396Z,6.38
2023-03-14T18:53:28.734Z,6.38
2023-03-14T18:55:57.948Z,6.38
2023-03-14T18:58:28.797Z,6.36
2023-03-14T19:00:59.670Z,6.35
2023-03-14T19:03:29.492Z,6.32
2023-03-14T19:05:58.873Z,6.29
2023-03-14T19:08:28.871Z,6.26
2023-03-14T19:11:01.379Z,6.25
2023-03-14T19:13:32.930Z,6.22
2023-03-14T19:16:02.576Z,6.19
2023-03-14T19:18:32.791Z,6.17
2023-03-14T19:21:09.948Z,6.12
2023-03-14T19:23:41.430Z,6.09
2023-03-14T19:26:10.819Z,6.07
2023-03-14T19:28:39.782Z,6.02
2023-03-14T19:31:10.742Z,5.97
2023-03-14T19:33:40.593Z,5.95
2023-03-14T19:36:18.030Z,5.92
2023-03-14T19:38:46.846Z,5.90
2023-03-14T19:41:15.907Z,5.87
2023-03-14T19:43:45.610Z,5.84
2023-03-14T19:46:14.553Z,5.82
2023-03-14T19:48:46.218Z,5.79
2023-03-14T19:51:18.181Z,5.76
2023-03-14T19:53:48.292Z,5.74
2023-03-14T19:56:17.096Z,5.70
2023-03-14T19:58:47.913Z,5.68
2023-03-14T20:01:16.914Z,5.65
2023-03-14T20:03:45.902Z,5.63
2023-03-14T20:06:15.294Z,5.60
2023-03-14T20:08:45.563Z,5.56
2023-03-14T20:11:15.351Z,5.53
2023-03-14T20:13:45.644Z,5.51
2023-03-14T20:16:14.571Z,5.49
2023-03-14T20:18:54.331Z,5.44
2023-03-14T20:21:23.810Z,5.41
2023-03-14T20:23:52.583Z,5.39
2023-03-14T20:26:22.198Z,5.35
2023-03-14T20:28:51.340Z,5.31
2023-03-14T20:31:20.282Z,5.29
2023-03-14T20:33:51.383Z,5.27
2023-03-14T20:36:21.457Z,5.25
2023-03-14T20:38:50.580Z,5.24
2023-03-14T20:41:19.283Z,5.22
2023-03-14T20:43:50.142Z,5.19
2023-03-14T20:46:19.153Z,5.17
2023-03-14T20:48:50.173Z,5.17
2023-03-14T20:51:18.970Z,5.16
2023-03-14T20:53:47.773Z,5.16
2023-03-14T20:56:16.664Z,5.14
2023-03-14T20:58:46.028Z,5.13
2023-03-14T21:04:02.806Z,5.07
2023-03-14T21:06:35.745Z,5.04
2023-03-14T21:09:05.740Z,5.02
2023-03-14T21:11:42.945Z,5.01
2023-03-14T21:14:12.793Z,4.98
2023-03-14T21:16:42.395Z,4.94
2023-03-14T21:19:11.864Z,4.90
2023-03-14T21:21:44.585Z,4.88
2023-03-14T21:24:15.795Z,4.86
2023-03-14T21:26:47.055Z,4.84
2023-03-14T21:29:16.196Z,4.80
2023-03-14T21:31:45.228Z,4.77
2023-03-14T21:34:14.296Z,4.75
2023-03-14T21:36:44.220Z,4.73
2023-03-14T21:39:14.851Z,4.70
2023-03-14T21:41:47.991Z,4.68
2023-03-14T21:44:19.487Z,4.65
2023-03-14T21:46:51.105Z,4.62
2023-03-14T21:49:20.326Z,4.57
2023-03-14T21:51:49.234Z,4.54
2023-03-14T21:54:18.238Z,4.52
2023-03-14T21:56:47.085Z,4.49
2023-03-14T21:59:16.148Z,4.47
2023-03-14T22:01:45.542Z,4.46
2023-03-14T22:04:14.796Z,4.43
2023-03-14T22:06:45.823Z,4.41
2023-03-14T22:09:15.384Z,4.38
2023-03-14T22:11:44.250Z,4.35
2023-03-14T22:14:12.872Z,4.31
2023-03-14T22:16:41.771Z,4.27
2023-03-14T22:19:14.153Z,4.22
2023-03-14T22:21:44.461Z,4.17
2023-03-14T22:24:13.461Z,4.13
2023-03-14T22:26:42.649Z,4.08
2023-03-14T22:29:11.522Z,4.05
2023-03-14T22:31:40.408Z,4.03
2023-03-14T22:34:09.569Z,4.02
2023-03-14T22:36:38.579Z,4.01
2023-03-14T22:39:08.970Z,3.99
2023-03-14T22:41:37.897Z,3.95
2023-03-14T22:44:12.105Z,3.92
2023-03-14T22:46:41.016Z,3.91
2023-03-14T22:49:09.822Z,3.88
2023-03-14T22:51:38.882Z,3.84
2023-03-14T22:54:07.976Z,3.80
2023-03-14T22:56:36.654Z,3.75
2023-03-14T22:59:05.397Z,3.68
2023-03-14T23:01:34.340Z,3.62
2023-03-14T23:04:04.166Z,3.55
2023-03-14T23:06:33.261Z,3.50
2023-03-14T23:09:03.057Z,3.46
2023-03-14T23:11:31.885Z,3.42
2023-03-14T23:14:00.637Z,3.38
2023-03-14T23:16:39.821Z,3.35
2023-03-14T23:19:10.891Z,3.33
2023-03-14T23:21:39.775Z,3.31
2023-03-14T23:24:09.479Z,3.27
2023-03-14T23:26:38.277Z,3.25
2023-03-14T23:29:07.852Z,3.23
2023-03-14T23:31:36.862Z,3.22
2023-03-14T23:34:05.576Z,3.21
2023-03-14T23:36:38.703Z,3.19
2023-03-14T23:39:08.941Z,3.20
2023-03-14T23:41:38.309Z,3.19
2023-03-14T23:44:07.780Z,3.17
2023-03-14T23:46:37.900Z,3.14
2023-03-14T23:49:06.733Z,3.11
2023-03-14T23:51:35.549Z,3.10
2023-03-14T23:54:04.492Z,3.08
2023-03-14T23:56:33.550Z,3.07
2023-03-14T23:59:02.666Z,3.06
